Hundvaag 1 weather for Jul 2002
Month no. 181
Obs.
Da.
Temp. Dew Point Precip. Wind
Speed
Wind gusts Cloud cover Press. Humidity Wind dir. Sunny OPT
01.07.2002 11,8   0,1     3 1002,1        
02.07.2002 12,9   5,9     0 996,0     1  
03.07.2002 12,3   5,4     2 1001,0     1  
04.07.2002 12,5   0,0     6 1006,6     1  
05.07.2002 12,6   0,2     2 1009,7        
06.07.2002 13,0   2,1     1 1009,5     1  
07.07.2002 13,0   2,2     0 1009,5        
08.07.2002 14,6   8,9     1 1009,4        
09.07.2002 15,3   2,9     1 1009,3        
10.07.2002 16,5   15,4     2 1007,4     1  
11.07.2002 13,5   21,1     0 1005,8        
12.07.2002 14,5   22,2     7 1014,9     1  
13.07.2002 16,4   0,0     10 1017,6     1  
14.07.2002 17,2   0,0     0 1020,0        
15.07.2002 18,0   0,1     1 1018,7        
16.07.2002 16,3   0,0     0 1016,7     1  
17.07.2002 15,3   0,0     2 1015,6        
18.07.2002 16,9   0,0     7 1014,7     1  
19.07.2002 16,5   0,0     0 1014,2        
20.07.2002 14,1   0,0     0 1013,4     1  
21.07.2002 18,2   0,0     3 1009,4        
22.07.2002 14,6   3,4     0 1009,2        
23.07.2002 13,4   0,6     0 1007,1        
24.07.2002 13,1   2,4     0 1007,0        
25.07.2002 16,0   0,0     4 1008,9     1  
26.07.2002 15,9   2,5     0 1007,7        
27.07.2002 16,2   0,7     0 1014,6     1  
28.07.2002 21,5   0,0     1 1013,7     1  
29.07.2002 18,2   0,6     0 1017,4     1  
30.07.2002 18,5   0,0     4 1015,2     1  
31.07.2002 23,0   0,0     6 1012,1     1  
Avrg/Sum 15,5   96,7     2,0 1010,8     16